Terminal Aerodrome Forecast
Issued by NWS

Home | Current Version | Previous Version | Graphics & Text | Print | Product List | Glossary On
Versions: 1 2 3 4 5 6 7 8 9 10 11 12 13 14 15 16 17 18 19 20 21 22 23 24 25 26 27 28 29 30 31 32 33
000
FTUS43 KLOT 262200 AAB
TAFDPA
TAF AMD
KDPA 262209Z 2622/2718 28006KT P6SM FEW025 BKN150
     FM270100 VRB04KT P6SM BKN100
     FM270500 VRB02KT 3SM BR FEW010 BKN100
     FM271300 28009KT P6SM SCT150
     FM271600 29013G21KT P6SM BKN045=

USA.gov is the U.S. government's official web portal to all federal, state and local government web resources and services.